Time;durP1;ratioP1;P1;durP2;ratioP2;P2;SDS_P1;SDS_P2;PMS_P1;PMS_P2;Temp;Humidity;BMP_temperature;BMP_pressure;BME280_temperature;BME280_humidity;BME280_pressure;Samples;Min_cycle;Max_cycle;Signal;HPM_P1;HPM_P2
2023/08/12 00:01:37;;;;;;;9.38;4.85;;;12.80;99.90;;;;;;5055981;28;20602;-56
2023/08/12 00:04:04;;;;;;;10.73;4.38;;;12.80;99.90;;;;;;5055964;28;20029;-56
2023/08/12 00:06:30;;;;;;;6.50;4.30;;;12.80;99.90;;;;;;5056055;28;20017;-56
2023/08/12 00:08:56;;;;;;;6.72;4.43;;;12.80;99.90;;;;;;5055647;28;20546;-56
2023/08/12 00:11:22;;;;;;;5.80;3.90;;;12.80;99.90;;;;;;5062854;28;20040;-56
2023/08/12 00:13:47;;;;;;;8.00;4.68;;;12.70;99.90;;;;;;5075634;28;20031;-56
2023/08/12 00:16:13;;;;;;;6.85;4.22;;;12.70;99.90;;;;;;5075982;28;20028;-56
2023/08/12 00:18:39;;;;;;;7.47;3.88;;;12.70;99.90;;;;;;5075684;28;20024;-56
2023/08/12 00:21:08;;;;;;;9.55;4.47;;;12.60;99.90;;;;;;5075559;28;20086;-56
2023/08/12 00:23:38;;;;;;;8.07;4.90;;;12.70;99.90;;;;;;5074518;28;20128;-56
2023/08/12 00:26:04;;;;;;;7.85;4.18;;;12.60;99.90;;;;;;5075290;28;20024;-56
2023/08/12 00:28:30;;;;;;;6.60;4.40;;;12.60;99.90;;;;;;5075686;28;20435;-56
2023/08/12 00:30:56;;;;;;;6.75;4.80;;;12.60;99.90;;;;;;5074377;28;20020;-56
2023/08/12 00:33:22;;;;;;;8.00;4.03;;;12.60;99.90;;;;;;5075365;28;20029;-56
2023/08/12 00:35:48;;;;;;;6.63;4.43;;;12.60;99.90;;;;;;5075522;28;20078;-57
2023/08/12 00:38:13;;;;;;;10.25;4.60;;;12.50;99.90;;;;;;5075305;28;20055;-56
2023/08/12 00:40:39;;;;;;;7.80;3.92;;;12.50;99.90;;;;;;5073986;28;20058;-56
2023/08/12 00:43:05;;;;;;;7.55;4.25;;;12.60;99.90;;;;;;5058688;28;20059;-56
2023/08/12 00:45:32;;;;;;;6.35;4.00;;;12.50;99.90;;;;;;5053977;28;20025;-56
2023/08/12 00:47:58;;;;;;;7.05;4.25;;;12.40;99.90;;;;;;5055240;28;20052;-56
2023/08/12 00:50:24;;;;;;;6.35;3.83;;;12.40;99.90;;;;;;5055031;28;20029;-56
2023/08/12 00:52:50;;;;;;;6.22;4.00;;;12.40;99.90;;;;;;5055185;28;20029;-56
2023/08/12 00:55:17;;;;;;;6.63;4.00;;;12.50;99.90;;;;;;5053828;28;20123;-56
2023/08/12 00:57:43;;;;;;;7.35;4.53;;;12.40;99.90;;;;;;5055147;28;20098;-56
2023/08/12 01:00:10;;;;;;;6.45;3.83;;;12.50;99.90;;;;;;5054880;28;20467;-56
2023/08/12 01:02:36;;;;;;;6.72;4.47;;;12.40;99.90;;;;;;5054920;28;20036;-56
2023/08/12 01:05:05;;;;;;;5.32;3.92;;;12.40;99.90;;;;;;5053691;28;20025;-56
2023/08/12 01:07:31;;;;;;;6.80;4.13;;;12.30;99.90;;;;;;5055176;28;20036;-56
2023/08/12 01:09:57;;;;;;;6.95;4.68;;;12.30;99.90;;;;;;5054635;28;20029;-56
2023/08/12 01:12:26;;;;;;;5.82;4.15;;;12.30;99.90;;;;;;5068929;28;20036;-56
2023/08/12 01:15:06;;;;;;;5.95;3.67;;;12.20;99.90;;;;;;5074570;28;20036;-56
2023/08/12 01:17:36;;;;;;;7.20;3.75;;;12.20;99.90;;;;;;5074808;28;20386;-56
2023/08/12 01:20:08;;;;;;;6.18;4.15;;;12.20;99.90;;;;;;5073856;28;20055;-56
2023/08/12 01:22:39;;;;;;;5.50;4.07;;;12.20;99.90;;;;;;5074360;28;20025;-56
2023/08/12 01:25:05;;;;;;;;;;;12.20;99.90;;;;;;5075056;28;20059;-56
2023/08/12 01:27:31;;;;;;;7.05;3.67;;;12.20;99.90;;;;;;5074973;28;19908;-56
2023/08/12 01:29:58;;;;;;;8.95;4.00;;;12.10;99.90;;;;;;5074465;28;20556;-56
2023/08/12 01:32:49;;;;;;;6.38;3.85;;;12.10;99.90;;;;;;5073262;28;20036;-56
2023/08/12 01:35:17;;;;;;;;;;;12.10;99.90;;;;;;5074992;28;20406;-56
2023/08/12 01:37:43;;;;;;;;;;;12.10;99.90;;;;;;5073513;28;19946;-56
2023/08/12 01:40:09;;;;;;;;;;;12.00;99.90;;;;;;5075065;28;20289;-56
2023/08/12 01:42:36;;;;;;;;;;;12.00;99.90;;;;;;5062313;28;19909;-56
2023/08/12 01:45:02;;;;;;;;;;;11.90;99.90;;;;;;5054892;28;20429;-56
2023/08/12 01:47:28;;;;;;;;;;;11.80;99.90;;;;;;5053508;28;20421;-56
2023/08/12 01:49:54;;;;;;;;;;;11.90;99.90;;;;;;5054647;28;19915;-56
2023/08/12 01:52:20;;;;;;;;;;;11.80;99.90;;;;;;5054726;28;19912;-56
2023/08/12 01:54:46;;;;;;;;;;;11.80;99.90;;;;;;5053659;28;19909;-56
2023/08/12 01:57:12;;;;;;;;;;;11.80;99.90;;;;;;5054604;28;20290;-56
2023/08/12 01:59:38;;;;;;;;;;;11.80;99.90;;;;;;5053453;28;19916;-56
2023/08/12 02:02:04;;;;;;;;;;;11.80;99.90;;;;;;5053288;28;19917;-56
2023/08/12 02:04:31;;;;;;;;;;;11.80;99.90;;;;;;5053384;28;20346;-56
2023/08/12 02:06:57;;;;;;;;;;;11.80;99.90;;;;;;5054588;28;20043;-56
2023/08/12 02:09:23;;;;;;;;;;;11.80;99.90;;;;;;5054773;28;19908;-56
2023/08/12 02:11:49;;;;;;;;;;;11.70;99.90;;;;;;5065470;28;19913;-56
2023/08/12 02:14:15;;;;;;;;;;;11.80;99.90;;;;;;5073293;28;19904;-56
2023/08/12 02:16:41;;;;;;;;;;;11.80;99.90;;;;;;5073235;28;19909;-56
2023/08/12 02:19:07;;;;;;;;;;;11.70;99.90;;;;;;5073328;28;19935;-56
2023/08/12 02:21:32;;;;;;;;;;;11.70;99.90;;;;;;5073185;28;19966;-56
2023/08/12 02:23:59;;;;;;;;;;;11.60;99.90;;;;;;5073367;28;20030;-56
2023/08/12 02:26:25;;;;;;;;;;;11.60;99.90;;;;;;5073055;28;19955;-56
2023/08/12 02:28:51;;;;;;;;;;;11.60;99.90;;;;;;5074520;28;19909;-56
2023/08/12 02:31:17;;;;;;;;;;;11.60;99.90;;;;;;5073613;28;20354;-56
2023/08/12 02:33:43;;;;;;;;;;;11.50;99.90;;;;;;5077043;28;19912;-56
2023/08/12 02:36:09;;;;;;;;;;;11.50;99.90;;;;;;5078174;28;19919;-56
2023/08/12 02:38:35;;;;;;;;;;;11.60;99.90;;;;;;5078199;28;19940;-56
2023/08/12 02:41:00;;;;;;;;;;;11.50;99.90;;;;;;5076806;28;19911;-57
2023/08/12 02:43:26;;;;;;;;;;;11.60;99.90;;;;;;5058490;28;19939;-57
2023/08/12 02:45:52;;;;;;;;;;;11.50;99.90;;;;;;5057981;28;20011;-56
2023/08/12 02:48:18;;;;;;;;;;;11.50;99.90;;;;;;5056503;28;20324;-56
2023/08/12 02:50:44;;;;;;;;;;;11.60;99.90;;;;;;5056756;28;19924;-57
2023/08/12 02:53:10;;;;;;;;;;;11.50;99.90;;;;;;5056648;28;20053;-56
2023/08/12 02:55:37;;;;;;;;;;;11.50;99.90;;;;;;5056545;28;20384;-57
2023/08/12 02:58:03;;;;;;;;;;;11.50;99.90;;;;;;5056695;28;19909;-56
2023/08/12 03:00:30;;;;;;;;;;;11.50;99.90;;;;;;5039400;28;19909;-56
2023/08/12 03:02:55;;;;;;;;;;;11.40;99.90;;;;;;5057264;28;19909;-56
2023/08/12 03:05:22;;;;;;;;;;;11.40;99.90;;;;;;5057836;28;20426;-56
2023/08/12 03:07:48;;;;;;;;;;;11.50;99.90;;;;;;5056284;28;20278;-56
2023/08/12 03:10:14;;;;;;;;;;;11.40;99.90;;;;;;5057633;28;19912;-56
2023/08/12 03:12:39;;;;;;;;;;;11.40;99.90;;;;;;5073727;28;19997;-56
2023/08/12 03:15:06;;;;;;;;;;;11.40;99.90;;;;;;5076043;28;20255;-56
2023/08/12 03:17:32;;;;;;;;;;;11.40;99.90;;;;;;5076555;28;19987;-56
2023/08/12 03:20:01;;;;;;;;;;;11.40;99.90;;;;;;5075997;28;20292;-57
2023/08/12 03:22:30;;;;;;;;;;;11.40;99.90;;;;;;5075891;28;20035;-56
2023/08/12 03:24:57;;;;;;;;;;;11.30;99.90;;;;;;5075937;28;19962;-56
2023/08/12 03:27:23;;;;;;;;;;;11.40;99.90;;;;;;5075917;28;19908;-56
2023/08/12 03:29:50;;;;;;;;;;;11.40;99.90;;;;;;5075905;28;19919;-56
2023/08/12 03:32:16;;;;;;;;;;;11.40;99.90;;;;;;5076006;28;19912;-56
2023/08/12 03:34:42;;;;;;;;;;;11.40;99.90;;;;;;5076082;28;19909;-56
2023/08/12 03:37:09;;;;;;;;;;;11.30;99.90;;;;;;5075735;28;19913;-56
2023/08/12 03:39:34;;;;;;;;;;;11.30;99.90;;;;;;5077142;28;19915;-56
2023/08/12 03:42:01;;;;;;;;;;;11.30;99.90;;;;;;5067992;28;19952;-56
2023/08/12 03:44:26;;;;;;;;;;;11.30;99.90;;;;;;5056215;28;19943;-56
2023/08/12 03:46:52;;;;;;;;;;;11.30;99.90;;;;;;5055686;28;19909;-56
2023/08/12 03:49:18;;;;;;;;;;;11.30;99.90;;;;;;5055876;28;20309;-56
2023/08/12 03:51:45;;;;;;;;;;;11.30;99.90;;;;;;5055443;28;19909;-56
2023/08/12 03:54:11;;;;;;;;;;;11.30;99.90;;;;;;5056828;28;20381;-56
2023/08/12 03:56:36;;;;;;;;;;;11.30;99.90;;;;;;5056798;28;19915;-56
2023/08/12 03:59:03;;;;;;;;;;;11.30;99.90;;;;;;5055403;28;19909;-56
2023/08/12 04:01:30;;;;;;;;;;;11.30;99.90;;;;;;5055256;28;19909;-56
2023/08/12 04:03:56;;;;;;;;;;;11.30;99.90;;;;;;5055318;28;19913;-56
2023/08/12 04:06:22;;;;;;;;;;;11.30;99.90;;;;;;5055107;28;19944;-56
2023/08/12 04:08:48;;;;;;;;;;;11.30;99.90;;;;;;5055330;28;19920;-56
2023/08/12 04:11:14;;;;;;;;;;;11.30;99.90;;;;;;5060952;28;19916;-56
2023/08/12 04:13:40;;;;;;;;;;;11.30;99.90;;;;;;5074787;28;20492;-56
2023/08/12 04:16:06;;;;;;;;;;;11.40;99.90;;;;;;5076307;28;19912;-56
2023/08/12 04:18:32;;;;;;;;;;;11.40;99.90;;;;;;5075219;28;19915;-56
2023/08/12 04:20:59;;;;;;;;;;;11.40;99.90;;;;;;5074697;28;19920;-56
2023/08/12 04:23:25;;;;;;;;;;;11.60;99.90;;;;;;5076165;28;19916;-56
2023/08/12 04:25:52;;;;;;;;;;;11.60;99.90;;;;;;5074701;28;19969;-56
2023/08/12 04:28:19;;;;;;;;;;;11.70;99.90;;;;;;5074661;28;19997;-56
2023/08/12 04:30:48;;;;;;;;;;;11.70;99.90;;;;;;5074921;28;20007;-56
2023/08/12 04:33:15;;;;;;;;;;;11.70;99.90;;;;;;5074781;28;19913;-56
2023/08/12 04:35:41;;;;;;;;;;;11.80;99.90;;;;;;5074583;28;19916;-56
2023/08/12 04:38:08;;;;;;;;;;;12.00;99.90;;;;;;5074526;28;19969;-56
2023/08/12 04:40:38;;;;;;;;;;;12.00;99.90;;;;;;5075872;28;19908;-56
2023/08/12 04:43:04;;;;;;;;;;;12.20;99.90;;;;;;5058091;28;19971;-56
2023/08/12 04:45:29;;;;;;;;;;;12.20;99.90;;;;;;5054751;28;19909;-56
2023/08/12 04:47:57;;;;;;;;;;;12.10;99.90;;;;;;5054408;28;19966;-56
2023/08/12 04:50:23;;;;;;;;;;;12.20;99.90;;;;;;5054235;28;19944;-56
2023/08/12 04:52:49;;;;;;;;;;;12.30;99.90;;;;;;5054457;28;19909;-56
2023/08/12 04:55:17;;;;;;;;;;;12.30;99.90;;;;;;5054301;28;19999;-56
2023/08/12 04:57:43;;;;;;;;;;;12.40;99.90;;;;;;5054464;28;19911;-56
2023/08/12 05:00:09;;;;;;;;;;;12.50;99.90;;;;;;5054136;28;19912;-56
2023/08/12 05:02:36;;;;;;;;;;;12.60;99.90;;;;;;5054083;28;19983;-56
2023/08/12 05:05:02;;;;;;;;;;;12.70;99.90;;;;;;5054187;28;20419;-56
2023/08/12 05:07:31;;;;;;;;;;;12.90;99.90;;;;;;5054198;28;20286;-56
2023/08/12 05:09:57;;;;;;;;;;;13.00;99.90;;;;;;5053971;28;19912;-57
2023/08/12 05:12:24;;;;;;;;;;;13.10;99.90;;;;;;5069413;28;19908;-56
2023/08/12 05:14:49;;;;;;;;;;;13.20;99.90;;;;;;5075230;28;20083;-56
2023/08/12 05:17:16;;;;;;;;;;;13.30;99.90;;;;;;5073887;28;19912;-57
2023/08/12 05:19:42;;;;;;;;;;;13.30;99.90;;;;;;5073665;28;19919;-57
2023/08/12 05:22:08;;;;;;;;;;;13.40;99.90;;;;;;5075336;28;19916;-57
2023/08/12 05:24:34;;;;;;;;;;;13.40;99.90;;;;;;5074924;28;20392;-56
2023/08/12 05:27:01;;;;;;;;;;;13.60;99.90;;;;;;5074920;28;19970;-57
2023/08/12 05:29:27;;;;;;;;;;;13.70;99.90;;;;;;5075031;28;19908;-57
2023/08/12 05:31:53;;;;;;;;;;;13.80;99.90;;;;;;5074941;28;20377;-56
2023/08/12 05:34:18;;;;;;;;;;;13.90;99.90;;;;;;5075060;28;19952;-57
2023/08/12 05:36:44;;;;;;;;;;;13.90;99.90;;;;;;5073732;28;19912;-56
2023/08/12 05:39:10;;;;;;;;;;;14.00;99.90;;;;;;5074766;28;19913;-57
2023/08/12 05:41:36;;;;;;;;;;;14.10;99.90;;;;;;5070838;28;19911;-57
2023/08/12 05:44:02;;;;;;;;;;;14.20;99.90;;;;;;5054838;28;19913;-57
2023/08/12 05:46:28;;;;;;;;;;;14.30;99.90;;;;;;5055161;28;19915;-57
2023/08/12 05:48:54;;;;;;;;;;;14.40;99.90;;;;;;5054672;28;19912;-56
2023/08/12 05:51:19;;;;;;;;;;;14.60;99.90;;;;;;5054678;28;19909;-57
2023/08/12 05:53:45;;;;;;;;;;;14.70;99.90;;;;;;5054724;28;19923;-57
2023/08/12 05:56:11;;;;;;;;;;;14.70;99.90;;;;;;5054873;28;19987;-57
2023/08/12 05:58:37;;;;;;;;;;;15.00;99.90;;;;;;5054790;28;19999;-56
2023/08/12 06:01:03;;;;;;;;;;;15.10;99.90;;;;;;5054482;28;19909;-57
2023/08/12 06:03:28;;;;;;;;;;;15.10;99.90;;;;;;5054593;28;19989;-57
2023/08/12 06:05:54;;;;;;;;;;;15.20;99.90;;;;;;5053557;28;19912;-57
2023/08/12 06:08:20;;;;;;;;;;;15.20;99.90;;;;;;5058502;28;19915;-57
2023/08/12 06:10:46;;;;;;;;;;;15.30;99.90;;;;;;5060837;28;20369;-57
2023/08/12 06:13:11;;;;;;;;;;;15.40;99.90;;;;;;5078525;28;19947;-57
2023/08/12 06:15:37;;;;;;;;;;;15.60;99.90;;;;;;5078595;28;19916;-57
2023/08/12 06:18:03;;;;;;;;;;;15.80;99.90;;;;;;5078715;28;19908;-57
2023/08/12 06:20:29;;;;;;;;;;;16.10;99.90;;;;;;5078405;28;19926;-57
2023/08/12 06:22:55;;;;;;;;;;;16.30;99.90;;;;;;5078442;28;19912;-57
2023/08/12 06:25:21;;;;;;;;;;;16.40;99.90;;;;;;5078380;28;20366;-57
2023/08/12 06:27:47;;;;;;;;;;;16.60;99.90;;;;;;5078170;28;19948;-57
2023/08/12 06:30:13;;;;;;;;;;;16.80;99.90;;;;;;5078302;28;19912;-57
2023/08/12 06:32:39;;;;;;;;;;;17.00;99.90;;;;;;5077058;28;19957;-57
2023/08/12 06:35:05;;;;;;;;;;;17.20;99.90;;;;;;5077981;28;19908;-57
2023/08/12 06:37:31;;;;;;;;;;;17.40;99.90;;;;;;5078145;28;20277;-57
2023/08/12 06:39:57;;;;;;;;;;;17.60;99.90;;;;;;5078143;28;19912;-57
2023/08/12 06:42:23;;;;;;;;;;;17.80;99.90;;;;;;5067350;28;19920;-57
2023/08/12 06:44:56;;;;;;;;;;;18.00;99.90;;;;;;5058389;28;19914;-57
2023/08/12 06:47:22;;;;;;;;;;;18.20;99.70;;;;;;5057983;28;19912;-57
2023/08/12 06:49:48;;;;;;;;;;;18.50;99.40;;;;;;5057798;28;19913;-57
2023/08/12 06:52:13;;;;;;;;;;;18.70;98.80;;;;;;5057947;28;20509;-57
2023/08/12 06:54:39;;;;;;;;;;;18.90;98.00;;;;;;5057969;28;19908;-57
2023/08/12 06:57:05;;;;;;;;;;;19.10;97.60;;;;;;5057803;28;19904;-57
2023/08/12 06:59:31;;;;;;;;;;;19.20;95.90;;;;;;5057762;28;19948;-57
2023/08/12 07:01:56;;;;;;;;;;;19.40;95.20;;;;;;5057531;28;19940;-57
2023/08/12 07:04:22;;;;;;;;;;;19.60;94.70;;;;;;5057382;28;20428;-57
2023/08/12 07:06:48;;;;;;;;;;;19.90;93.90;;;;;;5058121;28;19912;-57
2023/08/12 07:09:14;;;;;;;;;;;20.00;92.90;;;;;;5057746;28;19908;-57
2023/08/12 07:11:40;;;;;;;;;;;20.20;92.70;;;;;;5066967;28;20282;-57
2023/08/12 07:14:06;;;;;;;;;;;20.60;91.70;;;;;;5077454;28;19912;-57
2023/08/12 07:16:31;;;;;;;;;;;20.80;90.90;;;;;;5077556;28;19908;-57
2023/08/12 07:18:57;;;;;;;;;;;20.70;88.50;;;;;;5076012;28;20400;-57
2023/08/12 07:21:23;;;;;;;;;;;21.10;87.80;;;;;;5077356;28;19916;-57
2023/08/12 07:23:49;;;;;;;;;;;21.40;88.30;;;;;;5077332;28;20007;-57
2023/08/12 07:26:14;;;;;;;;;;;21.70;86.30;;;;;;5076950;28;19999;-57
2023/08/12 07:28:41;;;;;;;;;;;22.00;88.60;;;;;;5077611;28;19923;-57
2023/08/12 07:31:07;;;;;;;;;;;22.20;81.60;;;;;;5077054;28;19909;-57
2023/08/12 07:33:33;;;;;;;;;;;22.40;78.40;;;;;;5077057;28;19918;-57
2023/08/12 07:35:58;;;;;;;;;;;22.50;78.70;;;;;;5077333;28;19912;-57
2023/08/12 07:38:24;;;;;;;;;;;22.70;75.30;;;;;;5076782;28;19919;-57
2023/08/12 07:40:50;;;;;;;;;;;22.80;75.20;;;;;;5077001;28;20027;-57
2023/08/12 07:43:16;;;;;;;;;;;23.00;72.30;;;;;;5059043;28;19964;-57
2023/08/12 07:45:41;;;;;;;;;;;23.00;72.00;;;;;;5057316;28;20007;-57
2023/08/12 07:48:07;;;;;;;;;;;23.30;72.70;;;;;;5056567;28;19958;-57
2023/08/12 07:50:33;;;;;;;;;;;23.80;70.50;;;;;;5056885;28;19909;-57
2023/08/12 07:52:59;;;;;;;;;;;24.20;69.20;;;;;;5057214;28;20421;-57
2023/08/12 07:55:24;;;;;;;;;;;24.10;64.60;;;;;;5056431;28;19919;-57
2023/08/12 07:57:50;;;;;;;;;;;24.50;66.00;;;;;;5056810;28;19947;-57
2023/08/12 08:00:16;;;;;;;;;;;24.60;63.20;;;;;;5056611;28;20162;-57
2023/08/12 08:02:42;;;;;;;;;;;25.00;62.80;;;;;;5056297;28;19916;-57
2023/08/12 08:05:08;;;;;;;;;;;25.00;59.20;;;;;;5056744;28;19917;-57
2023/08/12 08:07:33;;;;;;;;;;;24.60;63.10;;;;;;5056550;28;19923;-57
2023/08/12 08:09:59;;;;;;;;;;;25.10;59.60;;;;;;5056326;28;19919;-57
2023/08/12 08:12:25;;;;;;;;;;;25.40;59.70;;;;;;5071894;28;19917;-57
2023/08/12 08:14:51;;;;;;;;;;;25.90;59.20;;;;;;5076157;28;19931;-57
2023/08/12 08:17:16;;;;;;;;;;;25.60;56.80;;;;;;5076180;28;20389;-57
2023/08/12 08:19:42;;;;;;;;;;;26.00;57.20;;;;;;5075022;28;20332;-58
2023/08/12 08:22:08;;;;;;;;;;;25.60;55.50;;;;;;5076056;28;19963;-57
2023/08/12 08:24:34;;;;;;;;;;;25.40;56.50;;;;;;5076057;28;19975;-57
2023/08/12 08:27:00;;;;;;;;;;;25.30;54.80;;;;;;5076135;28;20020;-57
2023/08/12 08:29:26;;;;;;;;;;;25.00;57.60;;;;;;5075702;28;20013;-57
2023/08/12 08:31:51;;;;;;;;;;;25.80;57.00;;;;;;5076019;28;19916;-57
2023/08/12 08:34:17;;;;;;;;;;;26.30;55.30;;;;;;5076070;28;19947;-57
2023/08/12 08:36:43;;;;;;;;;;;26.90;55.20;;;;;;5075856;28;19947;-57
2023/08/12 08:39:08;;;;;;;;;;;27.20;50.80;;;;;;5075755;28;19912;-57
2023/08/12 08:41:38;;;;;;;;;;;27.30;50.60;;;;;;5072057;28;19908;-57
2023/08/12 08:44:07;;;;;;;;;;;27.00;47.70;;;;;;5055589;28;19913;-57
2023/08/12 08:46:32;;;;;;;;;;;27.00;49.50;;;;;;5055773;28;19916;-57
2023/08/12 08:48:58;;;;;;;;;;;27.50;44.90;;;;;;5055645;28;19909;-57
2023/08/12 08:51:25;;;;;;;;;;;27.50;44.70;;;;;;5055435;28;20441;-57
2023/08/12 08:53:54;;;;;;;;;;;27.80;46.20;;;;;;5055525;28;19909;-57
2023/08/12 08:56:20;;;;;;;;;;;28.00;46.80;;;;;;5055564;28;20297;-57
2023/08/12 08:58:46;;;;;;;;;;;28.40;46.90;;;;;;5055300;28;19909;-57
2023/08/12 09:01:13;;;;;;;;;;;28.50;45.10;;;;;;5055434;28;20356;-57
2023/08/12 09:03:39;;;;;;;;;;;28.70;44.70;;;;;;5055394;28;20038;-57
2023/08/12 09:06:05;;;;;;;;;;;29.00;44.50;;;;;;5055518;28;20339;-57
2023/08/12 09:08:31;;;;;;;;;;;29.30;43.80;;;;;;5055364;28;19909;-57
2023/08/12 09:10:59;;;;;;;;;;;29.40;40.50;;;;;;5058855;28;19916;-57
2023/08/12 09:13:25;;;;;;;;;;;29.70;42.90;;;;;;5074999;28;19909;-57
2023/08/12 09:15:51;;;;;;;;;;;29.60;40.50;;;;;;5075206;28;19908;-57
2023/08/12 09:18:17;;;;;;;;;;;29.80;41.10;;;;;;5075290;28;19939;-57
2023/08/12 09:20:43;;;;;;;;;;;29.80;39.90;;;;;;5074965;28;19917;-57
2023/08/12 09:23:10;;;;;;;;;;;29.90;37.70;;;;;;5075142;28;19916;-57
2023/08/12 09:25:45;;;;;;;;;;;30.00;38.50;;;;;;5075329;28;19922;-57
2023/08/12 09:28:12;;;;;;;;;;;29.70;38.40;;;;;;5074925;28;19912;-57
2023/08/12 09:30:39;;;;;;;;;;;29.10;39.90;;;;;;5075128;28;20346;-57
2023/08/12 09:33:07;;;;;;;;;;;29.40;38.80;;;;;;5075018;28;19916;-57
2023/08/12 09:35:32;;;;;;;;;;;30.00;40.10;;;;;;5074912;28;19911;-57
2023/08/12 09:37:58;;;;;;;;;;;30.70;40.40;;;;;;5074869;28;19912;-57
2023/08/12 09:40:24;;;;;;;;;;;31.00;38.90;;;;;;5074669;28;19957;-57
2023/08/12 09:42:50;;;;;;;;;;;30.90;36.50;;;;;;5059792;28;19912;-57
2023/08/12 09:45:15;;;;;;;;;;;30.60;40.40;;;;;;5054977;28;19947;-57
2023/08/12 09:47:42;;;;;;;;;;;31.00;38.20;;;;;;5054739;28;19954;-57
2023/08/12 09:50:08;;;;;;;;;;;31.40;36.00;;;;;;5054550;28;20668;-57
2023/08/12 09:52:34;;;;;;;;;;;31.70;34.70;;;;;;5054922;28;19917;-58
2023/08/12 09:55:02;;;;;;;;;;;31.40;35.00;;;;;;5054797;28;19954;-57
2023/08/12 09:57:30;;;;;;;;;;;31.60;40.80;;;;;;5054720;28;19957;-57
2023/08/12 09:59:56;;;;;;;;;;;31.80;37.70;;;;;;5054695;28;20448;-57
2023/08/12 10:02:22;;;;;;;;;;;31.50;35.60;;;;;;5054254;28;19913;-57
2023/08/12 10:04:50;;;;;;;;;;;31.10;35.30;;;;;;5054721;28;19963;-58
2023/08/12 10:07:17;;;;;;;;;;;30.40;37.50;;;;;;5054739;28;20358;-57
2023/08/12 10:09:42;;;;;;;;;;;30.90;36.50;;;;;;5054343;28;20285;-57
2023/08/12 10:12:09;;;;;;;;;;;30.70;37.50;;;;;;5067966;28;19916;-58
2023/08/12 10:14:34;;;;;;;;;;;30.50;36.80;;;;;;5074514;28;20247;-58
2023/08/12 10:17:00;;;;;;;;;;;31.00;38.20;;;;;;5074501;28;19938;-58
2023/08/12 10:19:26;;;;;;;;;;;30.60;34.40;;;;;;5074363;28;19912;-58
2023/08/12 10:21:56;;;;;;;;;;;31.40;36.30;;;;;;5074526;28;19930;-57
2023/08/12 10:24:22;;;;;;;;;;;31.30;32.70;;;;;;5074164;28;19916;-57
2023/08/12 10:26:49;;;;;;;;;;;30.70;35.40;;;;;;5074615;28;19908;-58
2023/08/12 10:29:15;;;;;;;;;;;30.20;34.50;;;;;;5074545;28;19913;-57
2023/08/12 10:31:44;;;;;;;;;;;29.30;37.10;;;;;;5074220;28;19912;-57
2023/08/12 10:34:23;;;;;;;;;;;29.50;36.10;;;;;;5074442;28;19955;-58
2023/08/12 10:36:53;;;;;;;;;;;29.20;39.40;;;;;;5074296;28;19918;-58
2023/08/12 10:39:21;;;;;;;;;;;28.60;37.90;;;;;;5074255;28;19909;-58
2023/08/12 10:41:56;;;;;;;;;;;28.40;37.70;;;;;;5068787;28;20409;-57
2023/08/12 10:44:25;;;;;;;;;;;28.30;38.90;;;;;;5054226;28;19923;-58
2023/08/12 10:46:52;;;;;;;;;;;28.20;40.20;;;;;;5054621;28;20330;-57
2023/08/12 10:49:21;;;;;;;;;;;27.70;40.30;;;;;;5054218;28;19912;-57
2023/08/12 10:51:47;;;;;;;;;;;27.40;40.90;;;;;;5054127;28;20368;-57
2023/08/12 10:54:15;;;;;;;;;;;27.40;42.70;;;;;;5057520;28;19999;-57
2023/08/12 10:57:00;;;;;;;;;;;28.10;41.90;;;;;;5057980;28;20366;-57
2023/08/12 10:59:44;;;;;;;;;;;28.20;40.60;;;;;;5057630;28;19912;-57
2023/08/12 11:02:16;;;;;;;;;;;28.30;40.40;;;;;;5057620;28;19912;-57
2023/08/12 11:04:42;;;;;;;;;;;28.20;40.10;;;;;;5057653;28;20453;-57
2023/08/12 11:07:40;;;;;;;;;;;28.10;43.50;;;;;;5057671;28;19916;-57
2023/08/12 11:10:11;;;;;;;;;;;28.10;43.20;;;;;;5045175;28;19916;-57
2023/08/12 11:12:38;;;;;;;;;;;28.10;42.80;;;;;;5074891;28;19924;-57
2023/08/12 11:15:04;;;;;;;;;;;27.40;43.20;;;;;;5077356;28;19908;-57
2023/08/12 11:17:30;;;;;;;;;;;27.90;44.40;;;;;;5077541;28;19912;-57
2023/08/12 11:19:55;;;;;;;;;;;28.20;41.00;;;;;;5077312;28;19965;-57
2023/08/12 11:22:22;;;;;;;;;;;28.90;37.80;;;;;;5077195;28;19913;-57
2023/08/12 11:24:48;;;;;;;;;;;29.50;36.50;;;;;;5077507;28;19942;-57
2023/08/12 11:27:14;;;;;;;;;;;29.90;35.50;;;;;;5077250;28;19968;-57
2023/08/12 11:29:39;;;;;;;;;;;29.60;35.70;;;;;;5077159;28;19908;-57
2023/08/12 11:32:05;;;;;;;;;;;29.50;35.20;;;;;;5077468;28;19992;-57
2023/08/12 11:34:32;;;;;;;;;;;28.80;35.70;;;;;;5077137;28;19912;-57
2023/08/12 11:36:58;;;;;;;;;;;28.20;39.20;;;;;;5076939;28;20375;-57
2023/08/12 11:39:24;;;;;;;;;;;28.50;43.40;;;;;;5076940;28;19981;-57
2023/08/12 11:41:53;;;;;;;;;;;29.20;39.30;;;;;;5070934;28;19912;-57
2023/08/12 11:44:22;;;;;;;;;;;29.30;36.20;;;;;;5056974;28;19974;-57
2023/08/12 11:46:48;;;;;;;;;;;29.50;38.30;;;;;;5056957;28;20390;-57
2023/08/12 11:49:13;;;;;;;;;;;29.60;36.90;;;;;;5056654;28;19913;-57
2023/08/12 11:51:40;;;;;;;;;;;30.30;35.40;;;;;;5056711;28;19913;-57
2023/08/12 11:54:05;;;;;;;;;;;30.70;35.80;;;;;;5057056;28;19912;-57
2023/08/12 11:56:31;;;;;;;;;;;31.00;33.50;;;;;;5056646;28;19927;-57
2023/08/12 11:58:57;;;;;;;;;;;30.40;34.30;;;;;;5056650;28;19908;-57
2023/08/12 12:01:28;;;;;;;;;;;30.60;33.40;;;;;;5056519;28;19944;-57
2023/08/12 12:03:54;;;;;;;;;;;29.80;34.00;;;;;;5055840;28;19913;-57
2023/08/12 12:06:33;;;;;;;;;;;29.50;33.60;;;;;;5056354;28;19966;-57
2023/08/12 12:09:05;;;;;;;;;;;29.20;35.00;;;;;;5056848;28;19913;-57
2023/08/12 12:11:32;;;;;;;;;;;29.30;36.30;;;;;;5064608;28;19930;-58
2023/08/12 12:14:04;;;;;;;;;;;30.00;36.40;;;;;;5076393;28;19911;-57
2023/08/12 12:16:43;;;;;;;;;;;30.70;36.40;;;;;;5075028;28;19916;-58
2023/08/12 12:19:13;;;;;;;;;;;30.70;34.00;;;;;;5076400;28;20393;-58
2023/08/12 12:21:40;;;;;;;;;;;30.70;36.30;;;;;;5076343;28;19963;-58
2023/08/12 12:24:06;;;;;;;;;;;30.20;36.50;;;;;;5076081;28;19912;-57
2023/08/12 12:26:32;;;;;;;;;;;30.50;35.20;;;;;;5075973;28;20254;-58
2023/08/12 12:28:58;;;;;;;;;;;29.10;34.20;;;;;;5076120;28;19912;-57
2023/08/12 12:31:24;;;;;;;;;;;28.90;35.80;;;;;;5075999;28;19981;-57
2023/08/12 12:33:49;;;;;;;;;;;28.50;37.00;;;;;;5076016;28;19909;-57
2023/08/12 12:36:15;;;;;;;;;;;29.00;36.90;;;;;;5075982;28;19952;-57
2023/08/12 12:38:41;;;;;;;;;;;29.30;37.40;;;;;;5075865;28;19962;-57
2023/08/12 12:41:07;;;;;;;;;;;29.50;34.20;;;;;;5075745;28;19908;-57
2023/08/12 12:43:32;;;;;;;;;;;29.30;34.40;;;;;;5055861;28;20035;-57
2023/08/12 12:45:58;;;;;;;;;;;30.10;35.30;;;;;;5055616;28;19917;-57
2023/08/12 12:48:24;;;;;;;;;;;29.90;33.20;;;;;;5055660;28;20416;-58
2023/08/12 12:50:50;;;;;;;;;;;30.20;33.90;;;;;;5055658;28;19919;-58
2023/08/12 12:53:15;;;;;;;;;;;30.70;32.20;;;;;;5055660;28;19908;-57
2023/08/12 12:55:41;;;;;;;;;;;31.10;32.50;;;;;;5055655;28;19916;-58
2023/08/12 12:58:07;;;;;;;;;;;31.30;33.60;;;;;;5055753;28;19909;-58
2023/08/12 13:00:33;;;;;;;;;;;31.50;35.10;;;;;;5055292;28;20413;-58
2023/08/12 13:02:58;;;;;;;;;;;31.60;30.50;;;;;;5055389;28;19986;-57
2023/08/12 13:05:24;;;;;;;;;;;31.40;32.60;;;;;;5054330;28;19912;-58
2023/08/12 13:07:50;;;;;;;;;;;31.50;32.10;;;;;;5055303;28;19916;-57
2023/08/12 13:10:16;;;;;;;;;;;31.50;30.50;;;;;;5055562;28;20068;-57
2023/08/12 13:12:41;;;;;;;;;;;31.40;30.30;;;;;;5073189;28;19908;-57
2023/08/12 13:15:07;;;;;;;;;;;30.90;31.00;;;;;;5075159;28;20467;-58
2023/08/12 13:17:33;;;;;;;;;;;30.10;30.70;;;;;;5074539;28;19940;-57
2023/08/12 13:19:59;;;;;;;;;;;29.30;34.10;;;;;;5075157;28;19916;-58
2023/08/12 13:22:25;;;;;;;;;;;29.10;33.50;;;;;;5075021;28;19912;-58
2023/08/12 13:24:50;;;;;;;;;;;28.70;38.10;;;;;;5075121;28;19912;-58
2023/08/12 13:27:17;;;;;;;;;;;28.50;35.30;;;;;;5075091;28;19908;-57
2023/08/12 13:29:43;;;;;;;;;;;28.40;35.30;;;;;;5074893;28;19919;-57
2023/08/12 13:32:08;;;;;;;;;;;28.30;34.90;;;;;;5075135;28;19916;-57
2023/08/12 13:34:34;;;;;;;;;;;28.50;35.40;;;;;;5075225;28;19942;-57
2023/08/12 13:37:00;;;;;;;;;;;28.70;32.60;;;;;;5074843;28;19915;-58
2023/08/12 13:39:26;;;;;;;;;;;29.20;32.20;;;;;;5074995;28;19909;-57
2023/08/12 13:41:51;;;;;;;;;;;29.30;31.80;;;;;;5068661;28;19909;-57
2023/08/12 13:44:17;;;;;;;;;;;29.10;32.10;;;;;;5054869;28;20324;-57
2023/08/12 13:46:43;;;;;;;;;;;29.10;32.60;;;;;;5054912;28;20255;-58
2023/08/12 13:49:08;;;;;;;;;;;29.10;33.20;;;;;;5053485;28;19916;-58
2023/08/12 13:51:34;;;;;;;;;;;29.30;32.00;;;;;;5054723;28;19916;-58
2023/08/12 13:54:00;;;;;;;;;;;29.30;31.70;;;;;;5055006;28;19950;-58
2023/08/12 13:56:26;;;;;;;;;;;29.20;31.10;;;;;;5054723;28;20016;-58
2023/08/12 13:58:51;;;;;;;;;;;28.90;32.90;;;;;;5054471;28;20372;-57
2023/08/12 14:01:17;;;;;;;;;;;29.10;34.20;;;;;;5054888;28;20011;-57
2023/08/12 14:03:43;;;;;;;;;;;28.30;32.00;;;;;;5054599;28;20002;-57